Time;durP1;ratioP1;P1;durP2;ratioP2;P2;SDS_P1;SDS_P2;PMS_P1;PMS_P2;Temp;Humidity;BMP_temperature;BMP_pressure;BME280_temperature;BME280_humidity;BME280_pressure;Samples;Min_cycle;Max_cycle;Signal;HPM_P1;HPM_P2
2020/01/30 00:00:56;;;;;;;7.7;4.15;;;;;;;1.72;93.56445;95306.34;;;;
2020/01/30 00:01:57;;;;;;;7.7;4.15;;;;;;;1.72;93.56445;95306.34;;;;
2020/01/30 00:02:57;;;;;;;4.4;3.35;;;;;;;1.73;93.83496;95299.16;;;;
2020/01/30 00:03:58;;;;;;;4.4;3.35;;;;;;;1.73;93.83496;95299.16;;;;
2020/01/30 00:04:58;;;;;;;4.4;3.35;;;;;;;1.73;93.83496;95299.16;;;;
2020/01/30 00:05:59;;;;;;;4.4;3.35;;;;;;;1.73;93.83496;95299.16;;;;
2020/01/30 00:06:59;;;;;;;4.4;3.35;;;;;;;1.73;93.83496;95299.16;;;;
2020/01/30 00:08:00;;;;;;;4.4;3.35;;;;;;;1.73;93.83496;95299.16;;;;
2020/01/30 00:09:00;;;;;;;4.4;3.35;;;;;;;1.73;93.83496;95299.16;;;;
2020/01/30 00:10:01;;;;;;;4.4;3.35;;;;;;;1.73;93.83496;95299.16;;;;
2020/01/30 00:11:02;;;;;;;4.4;3.35;;;;;;;1.73;93.83496;95299.16;;;;
2020/01/30 00:12:02;;;;;;;4.4;3.35;;;;;;;1.73;93.83496;95299.16;;;;
2020/01/30 00:13:03;;;;;;;4.4;3.35;;;;;;;1.73;93.83496;95299.16;;;;
2020/01/30 00:14:03;;;;;;;5.85;2.85;;;;;;;1.88;93.78516;95290.7;;;;
2020/01/30 00:15:04;;;;;;;5.85;2.85;;;;;;;1.88;93.78516;95290.7;;;;
2020/01/30 00:16:04;;;;;;;5.85;2.85;;;;;;;1.88;93.78516;95290.7;;;;
2020/01/30 00:17:05;;;;;;;5.85;2.85;;;;;;;1.88;93.78516;95290.7;;;;
2020/01/30 00:18:05;;;;;;;5.85;2.85;;;;;;;1.88;93.78516;95290.7;;;;
2020/01/30 00:19:06;;;;;;;5.85;2.85;;;;;;;1.88;93.78516;95290.7;;;;
2020/01/30 00:20:06;;;;;;;5.85;2.85;;;;;;;1.88;93.78516;95290.7;;;;
2020/01/30 00:21:07;;;;;;;5.85;2.85;;;;;;;1.88;93.78516;95290.7;;;;
2020/01/30 00:22:07;;;;;;;5.85;2.85;;;;;;;1.88;93.78516;95290.7;;;;
2020/01/30 00:23:08;;;;;;;5.85;2.85;;;;;;;1.88;93.78516;95290.7;;;;
2020/01/30 00:24:08;;;;;;;5.550001;2.3;;;;;;;1.92;93.9707;95294.65;;;;
2020/01/30 00:25:08;;;;;;;5.550001;2.3;;;;;;;1.92;93.9707;95294.65;;;;
2020/01/30 00:26:09;;;;;;;5.550001;2.3;;;;;;;1.92;93.9707;95294.65;;;;
2020/01/30 00:27:09;;;;;;;5.550001;2.3;;;;;;;1.92;93.9707;95294.65;;;;
2020/01/30 00:28:10;;;;;;;5.550001;2.3;;;;;;;1.92;93.9707;95294.65;;;;
2020/01/30 00:29:10;;;;;;;5.550001;2.3;;;;;;;1.92;93.9707;95294.65;;;;
2020/01/30 00:30:11;;;;;;;5.550001;2.3;;;;;;;1.92;93.9707;95294.65;;;;
2020/01/30 00:31:11;;;;;;;5.550001;2.3;;;;;;;1.92;93.9707;95294.65;;;;
2020/01/30 00:32:12;;;;;;;5.550001;2.3;;;;;;;1.92;93.9707;95294.65;;;;
2020/01/30 00:33:12;;;;;;;5.550001;2.3;;;;;;;1.92;93.9707;95294.65;;;;
2020/01/30 00:34:13;;;;;;;5.550001;2.3;;;;;;;1.92;93.9707;95294.65;;;;
2020/01/30 00:35:13;;;;;;;4.65;2.2;;;;;;;2.08;94.5293;95300.64;;;;
2020/01/30 00:36:14;;;;;;;4.65;2.2;;;;;;;2.08;94.5293;95300.64;;;;
2020/01/30 00:37:14;;;;;;;4.65;2.2;;;;;;;2.08;94.5293;95300.64;;;;
2020/01/30 00:38:15;;;;;;;4.65;2.2;;;;;;;2.08;94.5293;95300.64;;;;
2020/01/30 00:39:15;;;;;;;4.65;2.2;;;;;;;2.08;94.5293;95300.64;;;;
2020/01/30 00:40:16;;;;;;;4.65;2.2;;;;;;;2.08;94.5293;95300.64;;;;
2020/01/30 00:41:16;;;;;;;4.65;2.2;;;;;;;2.08;94.5293;95300.64;;;;
2020/01/30 00:42:18;;;;;;;4.65;2.2;;;;;;;2.08;94.5293;95300.64;;;;
2020/01/30 00:43:57;;;;;;;4.65;2.2;;;;;;;2.08;94.5293;95300.64;;;;
2020/01/30 00:45:04;;;;;;;4.65;2.2;;;;;;;2.08;94.5293;95300.64;;;;
2020/01/30 00:47:04;;;;;;;3.099999;2.25;;;;;;;2.11;93.89844;95295.84;;;;
2020/01/30 00:48:05;;;;;;;3.099999;2.25;;;;;;;2.11;93.89844;95295.84;;;;
2020/01/30 00:49:06;;;;;;;3.099999;2.25;;;;;;;2.11;93.89844;95295.84;;;;
2020/01/30 00:50:07;;;;;;;3.099999;2.25;;;;;;;2.11;93.89844;95295.84;;;;
2020/01/30 00:51:07;;;;;;;3.099999;2.25;;;;;;;2.11;93.89844;95295.84;;;;
2020/01/30 00:52:08;;;;;;;3.099999;2.25;;;;;;;2.11;93.89844;95295.84;;;;
2020/01/30 00:53:08;;;;;;;3.099999;2.25;;;;;;;2.11;93.89844;95295.84;;;;
2020/01/30 00:54:09;;;;;;;3.099999;2.25;;;;;;;2.11;93.89844;95295.84;;;;
2020/01/30 00:55:09;;;;;;;3.099999;2.25;;;;;;;2.11;93.89844;95295.84;;;;
2020/01/30 00:56:09;;;;;;;4.750001;2.15;;;;;;;2.2;94.04492;95302.73;;;;
2020/01/30 00:57:10;;;;;;;4.750001;2.15;;;;;;;2.2;94.04492;95302.73;;;;
2020/01/30 00:58:10;;;;;;;4.750001;2.15;;;;;;;2.2;94.04492;95302.73;;;;
2020/01/30 00:59:11;;;;;;;4.750001;2.15;;;;;;;2.2;94.04492;95302.73;;;;
2020/01/30 01:00:11;;;;;;;4.750001;2.15;;;;;;;2.2;94.04492;95302.73;;;;
2020/01/30 01:01:12;;;;;;;4.750001;2.15;;;;;;;2.2;94.04492;95302.73;;;;
2020/01/30 01:02:12;;;;;;;4.750001;2.15;;;;;;;2.2;94.04492;95302.73;;;;
2020/01/30 01:03:13;;;;;;;4.750001;2.15;;;;;;;2.2;94.04492;95302.73;;;;
2020/01/30 01:04:13;;;;;;;4.750001;2.15;;;;;;;2.2;94.04492;95302.73;;;;
2020/01/30 01:05:14;;;;;;;4.750001;2.15;;;;;;;2.2;94.04492;95302.73;;;;
2020/01/30 01:06:14;;;;;;;4.750001;2.15;;;;;;;2.2;94.04492;95302.73;;;;
2020/01/30 01:07:15;;;;;;;4.6;2.1;;;;;;;2.22;93.94238;95312.78;;;;
2020/01/30 01:08:15;;;;;;;4.6;2.1;;;;;;;2.22;93.94238;95312.78;;;;
2020/01/30 01:09:16;;;;;;;4.6;2.1;;;;;;;2.22;93.94238;95312.78;;;;
2020/01/30 01:10:23;;;;;;;4.6;2.1;;;;;;;2.22;93.94238;95312.78;;;;
2020/01/30 01:11:27;;;;;;;4.6;2.1;;;;;;;2.22;93.94238;95312.78;;;;
2020/01/30 01:12:27;;;;;;;4.6;2.1;;;;;;;2.22;93.94238;95312.78;;;;
2020/01/30 01:13:28;;;;;;;4.6;2.1;;;;;;;2.22;93.94238;95312.78;;;;
2020/01/30 01:14:28;;;;;;;4.6;2.1;;;;;;;2.22;93.94238;95312.78;;;;
2020/01/30 01:15:29;;;;;;;4.6;2.1;;;;;;;2.22;93.94238;95312.78;;;;
2020/01/30 01:16:29;;;;;;;4.6;2.1;;;;;;;2.22;93.94238;95312.78;;;;
2020/01/30 01:17:30;;;;;;;4.3;2.1;;;;;;;2.26;94.06543;95321.14;;;;
2020/01/30 01:18:30;;;;;;;4.3;2.1;;;;;;;2.26;94.06543;95321.14;;;;
2020/01/30 01:19:31;;;;;;;4.3;2.1;;;;;;;2.26;94.06543;95321.14;;;;
2020/01/30 01:20:32;;;;;;;4.3;2.1;;;;;;;2.26;94.06543;95321.14;;;;
2020/01/30 01:21:32;;;;;;;4.3;2.1;;;;;;;2.26;94.06543;95321.14;;;;
2020/01/30 01:22:33;;;;;;;4.3;2.1;;;;;;;2.26;94.06543;95321.14;;;;
2020/01/30 01:23:33;;;;;;;4.3;2.1;;;;;;;2.26;94.06543;95321.14;;;;
2020/01/30 01:24:34;;;;;;;4.3;2.1;;;;;;;2.26;94.06543;95321.14;;;;
2020/01/30 01:25:34;;;;;;;4.3;2.1;;;;;;;2.26;94.06543;95321.14;;;;
2020/01/30 01:26:35;;;;;;;4.3;2.1;;;;;;;2.26;94.06543;95321.14;;;;
2020/01/30 01:27:35;;;;;;;4.3;2.1;;;;;;;2.26;94.06543;95321.14;;;;
2020/01/30 01:28:36;;;;;;;3.75;2.2;;;;;;;2.24;93.79199;95334.23;;;;
2020/01/30 01:29:36;;;;;;;3.75;2.2;;;;;;;2.24;93.79199;95334.23;;;;
2020/01/30 01:30:37;;;;;;;3.75;2.2;;;;;;;2.24;93.79199;95334.23;;;;
2020/01/30 01:31:37;;;;;;;3.75;2.2;;;;;;;2.24;93.79199;95334.23;;;;
2020/01/30 01:32:38;;;;;;;3.75;2.2;;;;;;;2.24;93.79199;95334.23;;;;
2020/01/30 01:33:38;;;;;;;3.75;2.2;;;;;;;2.24;93.79199;95334.23;;;;
2020/01/30 01:34:39;;;;;;;3.75;2.2;;;;;;;2.24;93.79199;95334.23;;;;
2020/01/30 01:35:39;;;;;;;3.75;2.2;;;;;;;2.24;93.79199;95334.23;;;;
2020/01/30 01:36:40;;;;;;;3.75;2.2;;;;;;;2.24;93.79199;95334.23;;;;
2020/01/30 01:37:40;;;;;;;3.75;2.2;;;;;;;2.24;93.79199;95334.23;;;;
2020/01/30 01:38:40;;;;;;;4.65;2.1;;;;;;;2.28;93.97559;95333.36;;;;
2020/01/30 01:39:41;;;;;;;4.65;2.1;;;;;;;2.28;93.97559;95333.36;;;;
2020/01/30 01:40:41;;;;;;;4.65;2.1;;;;;;;2.28;93.97559;95333.36;;;;
2020/01/30 01:41:42;;;;;;;4.65;2.1;;;;;;;2.28;93.97559;95333.36;;;;
2020/01/30 01:42:42;;;;;;;4.65;2.1;;;;;;;2.28;93.97559;95333.36;;;;
2020/01/30 01:43:43;;;;;;;4.65;2.1;;;;;;;2.28;93.97559;95333.36;;;;
2020/01/30 01:44:43;;;;;;;4.65;2.1;;;;;;;2.28;93.97559;95333.36;;;;
2020/01/30 01:45:44;;;;;;;4.65;2.1;;;;;;;2.28;93.97559;95333.36;;;;
2020/01/30 01:46:44;;;;;;;4.65;2.1;;;;;;;2.28;93.97559;95333.36;;;;
2020/01/30 01:47:44;;;;;;;4.65;2.1;;;;;;;2.28;93.97559;95333.36;;;;
2020/01/30 01:48:45;;;;;;;4.65;2.1;;;;;;;2.28;93.97559;95333.36;;;;
2020/01/30 01:49:45;;;;;;;5.400001;2.15;;;;;;;2.24;94.02148;95347.55;;;;
2020/01/30 01:50:46;;;;;;;5.400001;2.15;;;;;;;2.24;94.02148;95347.55;;;;
2020/01/30 01:51:46;;;;;;;5.400001;2.15;;;;;;;2.24;94.02148;95347.55;;;;
2020/01/30 01:52:47;;;;;;;5.400001;2.15;;;;;;;2.24;94.02148;95347.55;;;;
2020/01/30 01:53:47;;;;;;;5.400001;2.15;;;;;;;2.24;94.02148;95347.55;;;;
2020/01/30 01:54:48;;;;;;;5.400001;2.15;;;;;;;2.24;94.02148;95347.55;;;;
2020/01/30 01:55:48;;;;;;;5.400001;2.15;;;;;;;2.24;94.02148;95347.55;;;;
2020/01/30 01:56:48;;;;;;;5.400001;2.15;;;;;;;2.24;94.02148;95347.55;;;;
2020/01/30 01:57:49;;;;;;;5.400001;2.15;;;;;;;2.24;94.02148;95347.55;;;;
2020/01/30 01:58:49;;;;;;;5.400001;2.15;;;;;;;2.24;94.02148;95347.55;;;;
2020/01/30 01:59:50;;;;;;;5.35;2.6;;;;;;;2.29;94.09473;95348.74;;;;
2020/01/30 02:00:50;;;;;;;5.35;2.6;;;;;;;2.29;94.09473;95348.74;;;;
2020/01/30 02:01:51;;;;;;;5.35;2.6;;;;;;;2.29;94.09473;95348.74;;;;
2020/01/30 02:02:51;;;;;;;5.35;2.6;;;;;;;2.29;94.09473;95348.74;;;;
2020/01/30 02:03:52;;;;;;;5.35;2.6;;;;;;;2.29;94.09473;95348.74;;;;
2020/01/30 02:04:52;;;;;;;5.35;2.6;;;;;;;2.29;94.09473;95348.74;;;;
2020/01/30 02:05:52;;;;;;;5.35;2.6;;;;;;;2.29;94.09473;95348.74;;;;
2020/01/30 02:06:53;;;;;;;5.35;2.6;;;;;;;2.29;94.09473;95348.74;;;;
2020/01/30 02:07:53;;;;;;;5.35;2.6;;;;;;;2.29;94.09473;95348.74;;;;
2020/01/30 02:08:54;;;;;;;5.35;2.6;;;;;;;2.29;94.09473;95348.74;;;;
2020/01/30 02:09:54;;;;;;;5.35;2.6;;;;;;;2.29;94.09473;95348.74;;;;
2020/01/30 02:10:55;;;;;;;6.75;2.900001;;;;;;;2.31;94.15918;95344.97;;;;
2020/01/30 02:11:55;;;;;;;6.75;2.900001;;;;;;;2.31;94.15918;95344.97;;;;
2020/01/30 02:12:56;;;;;;;6.75;2.900001;;;;;;;2.31;94.15918;95344.97;;;;
2020/01/30 02:13:57;;;;;;;6.75;2.900001;;;;;;;2.31;94.15918;95344.97;;;;
2020/01/30 02:14:57;;;;;;;6.75;2.900001;;;;;;;2.31;94.15918;95344.97;;;;
2020/01/30 02:15:58;;;;;;;6.75;2.900001;;;;;;;2.31;94.15918;95344.97;;;;
2020/01/30 02:16:58;;;;;;;6.75;2.900001;;;;;;;2.31;94.15918;95344.97;;;;
2020/01/30 02:17:59;;;;;;;6.75;2.900001;;;;;;;2.31;94.15918;95344.97;;;;
2020/01/30 02:18:59;;;;;;;6.75;2.900001;;;;;;;2.31;94.15918;95344.97;;;;
2020/01/30 02:19:59;;;;;;;6.75;2.900001;;;;;;;2.31;94.15918;95344.97;;;;
2020/01/30 02:21:00;;;;;;;5.9;2.9;;;;;;;2.38;94.28223;95341.82;;;;
2020/01/30 02:22:00;;;;;;;5.9;2.9;;;;;;;2.38;94.28223;95341.82;;;;
2020/01/30 02:23:01;;;;;;;5.9;2.9;;;;;;;2.38;94.28223;95341.82;;;;
2020/01/30 02:24:01;;;;;;;5.9;2.9;;;;;;;2.38;94.28223;95341.82;;;;
2020/01/30 02:25:02;;;;;;;5.9;2.9;;;;;;;2.38;94.28223;95341.82;;;;
2020/01/30 02:26:04;;;;;;;5.9;2.9;;;;;;;2.38;94.28223;95341.82;;;;
2020/01/30 02:27:09;;;;;;;5.9;2.9;;;;;;;2.38;94.28223;95341.82;;;;
2020/01/30 02:29:43;;;;;;;5.9;2.9;;;;;;;2.38;94.28223;95341.82;;;;
2020/01/30 02:30:51;;;;;;;5.9;2.9;;;;;;;2.38;94.28223;95341.82;;;;
2020/01/30 02:31:56;;;;;;;3.55;2.6;;;;;;;2.39;94.37793;95334.12;;;;
2020/01/30 02:32:57;;;;;;;3.55;2.6;;;;;;;2.39;94.37793;95334.12;;;;
2020/01/30 02:33:57;;;;;;;3.55;2.6;;;;;;;2.39;94.37793;95334.12;;;;
2020/01/30 02:34:58;;;;;;;3.55;2.6;;;;;;;2.39;94.37793;95334.12;;;;
2020/01/30 02:35:58;;;;;;;3.55;2.6;;;;;;;2.39;94.37793;95334.12;;;;
2020/01/30 02:36:59;;;;;;;3.55;2.6;;;;;;;2.39;94.37793;95334.12;;;;
2020/01/30 02:37:59;;;;;;;3.55;2.6;;;;;;;2.39;94.37793;95334.12;;;;
2020/01/30 02:39:00;;;;;;;3.55;2.6;;;;;;;2.39;94.37793;95334.12;;;;
2020/01/30 02:40:00;;;;;;;3.55;2.6;;;;;;;2.39;94.37793;95334.12;;;;
2020/01/30 02:41:01;;;;;;;3.55;2.6;;;;;;;2.39;94.37793;95334.12;;;;
2020/01/30 02:42:01;;;;;;;3.4;2.45;;;;;;;2.5;94.67188;95332.44;;;;
2020/01/30 02:43:02;;;;;;;3.4;2.45;;;;;;;2.5;94.67188;95332.44;;;;
2020/01/30 02:44:02;;;;;;;3.4;2.45;;;;;;;2.5;94.67188;95332.44;;;;
2020/01/30 02:45:03;;;;;;;3.4;2.45;;;;;;;2.5;94.67188;95332.44;;;;
2020/01/30 02:46:03;;;;;;;3.4;2.45;;;;;;;2.5;94.67188;95332.44;;;;
2020/01/30 02:47:04;;;;;;;3.4;2.45;;;;;;;2.5;94.67188;95332.44;;;;
2020/01/30 02:48:04;;;;;;;3.4;2.45;;;;;;;2.5;94.67188;95332.44;;;;
2020/01/30 02:49:04;;;;;;;3.4;2.45;;;;;;;2.5;94.67188;95332.44;;;;
2020/01/30 02:50:05;;;;;;;3.4;2.45;;;;;;;2.5;94.67188;95332.44;;;;
2020/01/30 02:51:05;;;;;;;3.4;2.45;;;;;;;2.5;94.67188;95332.44;;;;
2020/01/30 02:52:06;;;;;;;3.4;2.45;;;;;;;2.5;94.67188;95332.44;;;;
2020/01/30 02:53:06;;;;;;;6.65;2.6;;;;;;;2.51;94.45313;95324.75;;;;
2020/01/30 02:54:07;;;;;;;6.65;2.6;;;;;;;2.51;94.45313;95324.75;;;;
2020/01/30 02:55:07;;;;;;;6.65;2.6;;;;;;;2.51;94.45313;95324.75;;;;
2020/01/30 02:56:08;;;;;;;6.65;2.6;;;;;;;2.51;94.45313;95324.75;;;;
2020/01/30 02:57:08;;;;;;;6.65;2.6;;;;;;;2.51;94.45313;95324.75;;;;
2020/01/30 02:58:09;;;;;;;6.65;2.6;;;;;;;2.51;94.45313;95324.75;;;;
2020/01/30 02:59:12;;;;;;;6.65;2.6;;;;;;;2.51;94.45313;95324.75;;;;
2020/01/30 03:00:14;;;;;;;6.65;2.6;;;;;;;2.51;94.45313;95324.75;;;;
2020/01/30 03:01:17;;;;;;;6.65;2.6;;;;;;;2.51;94.45313;95324.75;;;;
2020/01/30 03:02:18;;;;;;;6.65;2.6;;;;;;;2.51;94.45313;95324.75;;;;
2020/01/30 03:03:18;;;;;;;3.35;2.45;;;;;;;2.57;94.79102;95310.69;;;;
2020/01/30 03:04:19;;;;;;;3.35;2.45;;;;;;;2.57;94.79102;95310.69;;;;
2020/01/30 03:05:19;;;;;;;3.35;2.45;;;;;;;2.57;94.79102;95310.69;;;;
2020/01/30 03:06:20;;;;;;;3.35;2.45;;;;;;;2.57;94.79102;95310.69;;;;
2020/01/30 03:07:20;;;;;;;3.35;2.45;;;;;;;2.57;94.79102;95310.69;;;;
2020/01/30 03:08:21;;;;;;;3.35;2.45;;;;;;;2.57;94.79102;95310.69;;;;
2020/01/30 03:09:21;;;;;;;3.35;2.45;;;;;;;2.57;94.79102;95310.69;;;;
2020/01/30 03:10:21;;;;;;;3.35;2.45;;;;;;;2.57;94.79102;95310.69;;;;
2020/01/30 03:11:22;;;;;;;3.35;2.45;;;;;;;2.57;94.79102;95310.69;;;;
2020/01/30 03:12:22;;;;;;;3.35;2.45;;;;;;;2.57;94.79102;95310.69;;;;
2020/01/30 03:13:23;;;;;;;3.35;2.45;;;;;;;2.57;94.79102;95310.69;;;;
2020/01/30 03:14:23;;;;;;;5.15;2.4;;;;;;;2.52;94.67676;95317.1;;;;
2020/01/30 03:15:24;;;;;;;5.15;2.4;;;;;;;2.52;94.67676;95317.1;;;;
2020/01/30 03:16:24;;;;;;;5.15;2.4;;;;;;;2.52;94.67676;95317.1;;;;
2020/01/30 03:17:25;;;;;;;5.15;2.4;;;;;;;2.52;94.67676;95317.1;;;;
2020/01/30 03:18:25;;;;;;;5.15;2.4;;;;;;;2.52;94.67676;95317.1;;;;
2020/01/30 03:19:26;;;;;;;5.15;2.4;;;;;;;2.52;94.67676;95317.1;;;;
2020/01/30 03:20:26;;;;;;;5.15;2.4;;;;;;;2.52;94.67676;95317.1;;;;
2020/01/30 03:21:27;;;;;;;5.15;2.4;;;;;;;2.52;94.67676;95317.1;;;;
2020/01/30 03:22:27;;;;;;;5.15;2.4;;;;;;;2.52;94.67676;95317.1;;;;
2020/01/30 03:23:27;;;;;;;5.15;2.4;;;;;;;2.52;94.67676;95317.1;;;;
2020/01/30 03:24:28;;;;;;;3.95;2.7;;;;;;;2.59;94.97461;95311.22;;;;
2020/01/30 03:25:28;;;;;;;3.95;2.7;;;;;;;2.59;94.97461;95311.22;;;;
2020/01/30 03:26:29;;;;;;;3.95;2.7;;;;;;;2.59;94.97461;95311.22;;;;
2020/01/30 03:27:29;;;;;;;3.95;2.7;;;;;;;2.59;94.97461;95311.22;;;;
2020/01/30 03:28:30;;;;;;;3.95;2.7;;;;;;;2.59;94.97461;95311.22;;;;
2020/01/30 03:29:30;;;;;;;3.95;2.7;;;;;;;2.59;94.97461;95311.22;;;;
2020/01/30 03:30:31;;;;;;;3.95;2.7;;;;;;;2.59;94.97461;95311.22;;;;
2020/01/30 03:31:31;;;;;;;3.95;2.7;;;;;;;2.59;94.97461;95311.22;;;;
2020/01/30 03:32:32;;;;;;;3.95;2.7;;;;;;;2.59;94.97461;95311.22;;;;
2020/01/30 03:33:32;;;;;;;3.95;2.7;;;;;;;2.59;94.97461;95311.22;;;;
2020/01/30 03:34:33;;;;;;;3.95;2.7;;;;;;;2.59;94.97461;95311.22;;;;
2020/01/30 03:35:38;;;;;;;6.5;2.7;;;;;;;2.62;94.9375;95308.29;;;;
2020/01/30 03:36:43;;;;;;;6.5;2.7;;;;;;;2.62;94.9375;95308.29;;;;
2020/01/30 03:37:56;;;;;;;6.5;2.7;;;;;;;2.62;94.9375;95308.29;;;;
2020/01/30 03:39:20;;;;;;;6.5;2.7;;;;;;;2.62;94.9375;95308.29;;;;
2020/01/30 03:40:41;;;;;;;6.5;2.7;;;;;;;2.62;94.9375;95308.29;;;;
2020/01/30 03:41:45;;;;;;;6.5;2.7;;;;;;;2.62;94.9375;95308.29;;;;
2020/01/30 03:42:46;;;;;;;6.5;2.7;;;;;;;2.62;94.9375;95308.29;;;;
2020/01/30 03:43:46;;;;;;;6.5;2.7;;;;;;;2.62;94.9375;95308.29;;;;
2020/01/30 03:44:47;;;;;;;6.5;2.7;;;;;;;2.62;94.9375;95308.29;;;;
2020/01/30 03:45:48;;;;;;;6.45;2.9;;;;;;;2.69;95.05859;95303.36;;;;
2020/01/30 03:46:48;;;;;;;6.45;2.9;;;;;;;2.69;95.05859;95303.36;;;;
2020/01/30 03:47:52;;;;;;;6.45;2.9;;;;;;;2.69;95.05859;95303.36;;;;
2020/01/30 03:48:52;;;;;;;6.45;2.9;;;;;;;2.69;95.05859;95303.36;;;;
2020/01/30 03:49:53;;;;;;;6.45;2.9;;;;;;;2.69;95.05859;95303.36;;;;
2020/01/30 03:50:53;;;;;;;6.45;2.9;;;;;;;2.69;95.05859;95303.36;;;;
2020/01/30 03:51:54;;;;;;;6.45;2.9;;;;;;;2.69;95.05859;95303.36;;;;
2020/01/30 03:52:54;;;;;;;6.45;2.9;;;;;;;2.69;95.05859;95303.36;;;;
2020/01/30 03:53:55;;;;;;;6.45;2.9;;;;;;;2.69;95.05859;95303.36;;;;
2020/01/30 03:54:55;;;;;;;6.45;2.9;;;;;;;2.69;95.05859;95303.36;;;;
2020/01/30 03:55:56;;;;;;;6.45;2.9;;;;;;;2.69;95.05859;95303.36;;;;
2020/01/30 03:56:56;;;;;;;5.4;2.8;;;;;;;2.71;95.33398;95298.67;;;;
2020/01/30 03:57:56;;;;;;;5.4;2.8;;;;;;;2.71;95.33398;95298.67;;;;
2020/01/30 03:58:57;;;;;;;5.4;2.8;;;;;;;2.71;95.33398;95298.67;;;;
2020/01/30 03:59:58;;;;;;;5.4;2.8;;;;;;;2.71;95.33398;95298.67;;;;
2020/01/30 04:00:58;;;;;;;5.4;2.8;;;;;;;2.71;95.33398;95298.67;;;;
2020/01/30 04:01:59;;;;;;;5.4;2.8;;;;;;;2.71;95.33398;95298.67;;;;
2020/01/30 04:02:59;;;;;;;5.4;2.8;;;;;;;2.71;95.33398;95298.67;;;;
2020/01/30 04:04:00;;;;;;;5.4;2.8;;;;;;;2.71;95.33398;95298.67;;;;
2020/01/30 04:05:00;;;;;;;5.4;2.8;;;;;;;2.71;95.33398;95298.67;;;;
2020/01/30 04:06:00;;;;;;;5.4;2.8;;;;;;;2.71;95.33398;95298.67;;;;
2020/01/30 04:07:01;;;;;;;4.95;2.75;;;;;;;2.85;95.51172;95285.39;;;;
2020/01/30 04:08:02;;;;;;;4.95;2.75;;;;;;;2.85;95.51172;95285.39;;;;
2020/01/30 04:09:03;;;;;;;4.95;2.75;;;;;;;2.85;95.51172;95285.39;;;;
2020/01/30 04:10:14;;;;;;;4.95;2.75;;;;;;;2.85;95.51172;95285.39;;;;
2020/01/30 04:11:15;;;;;;;4.95;2.75;;;;;;;2.85;95.51172;95285.39;;;;
2020/01/30 04:12:15;;;;;;;4.95;2.75;;;;;;;2.85;95.51172;95285.39;;;;
2020/01/30 04:13:18;;;;;;;4.95;2.75;;;;;;;2.85;95.51172;95285.39;;;;
2020/01/30 04:14:19;;;;;;;4.95;2.75;;;;;;;2.85;95.51172;95285.39;;;;
2020/01/30 04:15:19;;;;;;;4.95;2.75;;;;;;;2.85;95.51172;95285.39;;;;
2020/01/30 04:16:20;;;;;;;4.95;2.75;;;;;;;2.85;95.51172;95285.39;;;;
2020/01/30 04:17:25;;;;;;;4.95;2.75;;;;;;;2.85;95.51172;95285.39;;;;
2020/01/30 04:18:29;;;;;;;4.05;2.4;;;;;;;2.9;95.41992;95285.64;;;;
2020/01/30 04:19:34;;;;;;;4.05;2.4;;;;;;;2.9;95.41992;95285.64;;;;
2020/01/30 04:20:35;;;;;;;4.05;2.4;;;;;;;2.9;95.41992;95285.64;;;;
2020/01/30 04:21:35;;;;;;;4.05;2.4;;;;;;;2.9;95.41992;95285.64;;;;
2020/01/30 04:22:36;;;;;;;4.05;2.4;;;;;;;2.9;95.41992;95285.64;;;;
2020/01/30 04:23:36;;;;;;;4.05;2.4;;;;;;;2.9;95.41992;95285.64;;;;
2020/01/30 04:24:37;;;;;;;4.05;2.4;;;;;;;2.9;95.41992;95285.64;;;;
2020/01/30 04:25:37;;;;;;;4.05;2.4;;;;;;;2.9;95.41992;95285.64;;;;
2020/01/30 04:26:38;;;;;;;4.05;2.4;;;;;;;2.9;95.41992;95285.64;;;;
2020/01/30 04:27:38;;;;;;;4.05;2.4;;;;;;;2.9;95.41992;95285.64;;;;
2020/01/30 04:28:39;;;;;;;3.95;2.4;;;;;;;3;95.42969;95286.18;;;;
2020/01/30 04:29:39;;;;;;;3.95;2.4;;;;;;;3;95.42969;95286.18;;;;
2020/01/30 04:30:40;;;;;;;3.95;2.4;;;;;;;3;95.42969;95286.18;;;;
2020/01/30 04:31:40;;;;;;;3.95;2.4;;;;;;;3;95.42969;95286.18;;;;
2020/01/30 04:32:40;;;;;;;3.95;2.4;;;;;;;3;95.42969;95286.18;;;;
2020/01/30 04:33:41;;;;;;;3.95;2.4;;;;;;;3;95.42969;95286.18;;;;
2020/01/30 04:34:41;;;;;;;3.95;2.4;;;;;;;3;95.42969;95286.18;;;;
2020/01/30 04:35:42;;;;;;;3.95;2.4;;;;;;;3;95.42969;95286.18;;;;
2020/01/30 04:36:42;;;;;;;3.95;2.4;;;;;;;3;95.42969;95286.18;;;;
2020/01/30 04:37:42;;;;;;;3.95;2.4;;;;;;;3;95.42969;95286.18;;;;
2020/01/30 04:38:43;;;;;;;4.149999;2.35;;;;;;;2.94;95.34473;95272.26;;;;
2020/01/30 04:39:43;;;;;;;4.149999;2.35;;;;;;;2.94;95.34473;95272.26;;;;
2020/01/30 04:40:44;;;;;;;4.149999;2.35;;;;;;;2.94;95.34473;95272.26;;;;
2020/01/30 04:41:44;;;;;;;4.149999;2.35;;;;;;;2.94;95.34473;95272.26;;;;
2020/01/30 04:42:45;;;;;;;4.149999;2.35;;;;;;;2.94;95.34473;95272.26;;;;
2020/01/30 04:43:45;;;;;;;4.149999;2.35;;;;;;;2.94;95.34473;95272.26;;;;
2020/01/30 04:44:46;;;;;;;4.149999;2.35;;;;;;;2.94;95.34473;95272.26;;;;
2020/01/30 04:45:46;;;;;;;4.149999;2.35;;;;;;;2.94;95.34473;95272.26;;;;
2020/01/30 04:46:47;;;;;;;4.149999;2.35;;;;;;;2.94;95.34473;95272.26;;;;
2020/01/30 04:47:47;;;;;;;4.149999;2.35;;;;;;;2.94;95.34473;95272.26;;;;
2020/01/30 04:48:48;;;;;;;4.149999;2.35;;;;;;;2.94;95.34473;95272.26;;;;
2020/01/30 04:49:48;;;;;;;4.35;2.8;;;;;;;2.95;95.36719;95256.18;;;;
2020/01/30 04:50:49;;;;;;;4.35;2.8;;;;;;;2.95;95.36719;95256.18;;;;
2020/01/30 04:51:49;;;;;;;4.35;2.8;;;;;;;2.95;95.36719;95256.18;;;;
2020/01/30 04:52:50;;;;;;;4.35;2.8;;;;;;;2.95;95.36719;95256.18;;;;
2020/01/30 04:53:51;;;;;;;4.35;2.8;;;;;;;2.95;95.36719;95256.18;;;;
2020/01/30 04:54:51;;;;;;;4.35;2.8;;;;;;;2.95;95.36719;95256.18;;;;
2020/01/30 04:55:52;;;;;;;4.35;2.8;;;;;;;2.95;95.36719;95256.18;;;;
2020/01/30 04:56:53;;;;;;;4.35;2.8;;;;;;;2.95;95.36719;95256.18;;;;
2020/01/30 04:58:01;;;;;;;4.35;2.8;;;;;;;2.95;95.36719;95256.18;;;;
2020/01/30 04:59:07;;;;;;;4.35;2.8;;;;;;;2.95;95.36719;95256.18;;;;
2020/01/30 05:00:30;;;;;;;4.1;3.05;;;;;;;2.91;95.24219;95246.48;;;;
2020/01/30 05:02:37;;;;;;;4.1;3.05;;;;;;;2.91;95.24219;95246.48;;;;
2020/01/30 05:03:51;;;;;;;4.1;3.05;;;;;;;2.91;95.24219;95246.48;;;;
2020/01/30 05:04:59;;;;;;;4.1;3.05;;;;;;;2.91;95.24219;95246.48;;;;
2020/01/30 05:06:23;;;;;;;4.1;3.05;;;;;;;2.91;95.24219;95246.48;;;;
2020/01/30 05:07:45;;;;;;;4.1;3.05;;;;;;;2.91;95.24219;95246.48;;;;
2020/01/30 05:08:46;;;;;;;4.1;3.05;;;;;;;2.91;95.24219;95246.48;;;;
2020/01/30 05:09:46;;;;;;;4.1;3.05;;;;;;;2.91;95.24219;95246.48;;;;
2020/01/30 05:10:47;;;;;;;5.399999;2.35;;;;;;;2.86;95.51367;95224.79;;;;
2020/01/30 05:11:48;;;;;;;5.399999;2.35;;;;;;;2.86;95.51367;95224.79;;;;
2020/01/30 05:12:48;;;;;;;5.399999;2.35;;;;;;;2.86;95.51367;95224.79;;;;
2020/01/30 05:13:49;;;;;;;5.399999;2.35;;;;;;;2.86;95.51367;95224.79;;;;
2020/01/30 05:14:49;;;;;;;5.399999;2.35;;;;;;;2.86;95.51367;95224.79;;;;
2020/01/30 05:15:49;;;;;;;5.399999;2.35;;;;;;;2.86;95.51367;95224.79;;;;
2020/01/30 05:16:50;;;;;;;5.399999;2.35;;;;;;;2.86;95.51367;95224.79;;;;
2020/01/30 05:17:50;;;;;;;5.399999;2.35;;;;;;;2.86;95.51367;95224.79;;;;
2020/01/30 05:18:51;;;;;;;5.399999;2.35;;;;;;;2.86;95.51367;95224.79;;;;
2020/01/30 05:19:51;;;;;;;5.399999;2.35;;;;;;;2.86;95.51367;95224.79;;;;
2020/01/30 05:20:52;;;;;;;5.399999;2.35;;;;;;;2.86;95.51367;95224.79;;;;
2020/01/30 05:21:52;;;;;;;3.85;2.8;;;;;;;2.62;95.56348;95232.75;;;;
2020/01/30 05:22:53;;;;;;;3.85;2.8;;;;;;;2.62;95.56348;95232.75;;;;
2020/01/30 05:23:53;;;;;;;3.85;2.8;;;;;;;2.62;95.56348;95232.75;;;;
2020/01/30 05:24:55;;;;;;;3.85;2.8;;;;;;;2.62;95.56348;95232.75;;;;
2020/01/30 05:25:56;;;;;;;3.85;2.8;;;;;;;2.62;95.56348;95232.75;;;;
2020/01/30 05:26:56;;;;;;;3.85;2.8;;;;;;;2.62;95.56348;95232.75;;;;
2020/01/30 05:27:56;;;;;;;3.85;2.8;;;;;;;2.62;95.56348;95232.75;;;;
2020/01/30 05:28:57;;;;;;;3.85;2.8;;;;;;;2.62;95.56348;95232.75;;;;
2020/01/30 05:29:57;;;;;;;3.85;2.8;;;;;;;2.62;95.56348;95232.75;;;;
2020/01/30 05:30:58;;;;;;;3.85;2.8;;;;;;;2.62;95.56348;95232.75;;;;
2020/01/30 05:31:58;;;;;;;3.2;2.6;;;;;;;2.39;95.90137;95224.89;;;;
2020/01/30 05:32:59;;;;;;;3.2;2.6;;;;;;;2.39;95.90137;95224.89;;;;
2020/01/30 05:33:59;;;;;;;3.2;2.6;;;;;;;2.39;95.90137;95224.89;;;;
2020/01/30 05:35:00;;;;;;;3.2;2.6;;;;;;;2.39;95.90137;95224.89;;;;
2020/01/30 05:36:00;;;;;;;3.2;2.6;;;;;;;2.39;95.90137;95224.89;;;;
2020/01/30 05:37:00;;;;;;;3.2;2.6;;;;;;;2.39;95.90137;95224.89;;;;
2020/01/30 05:38:01;;;;;;;3.2;2.6;;;;;;;2.39;95.90137;95224.89;;;;
2020/01/30 05:39:01;;;;;;;3.2;2.6;;;;;;;2.39;95.90137;95224.89;;;;
2020/01/30 05:40:03;;;;;;;3.2;2.6;;;;;;;2.39;95.90137;95224.89;;;;
2020/01/30 05:41:03;;;;;;;3.2;2.6;;;;;;;2.39;95.90137;95224.89;;;;
2020/01/30 05:42:04;;;;;;;3.2;2.6;;;;;;;2.39;95.90137;95224.89;;;;
2020/01/30 05:43:04;;;;;;;3.65;2.55;;;;;;;2.11;95.84863;95224.86;;;;
2020/01/30 05:44:05;;;;;;;3.65;2.55;;;;;;;2.11;95.84863;95224.86;;;;
2020/01/30 05:45:05;;;;;;;3.65;2.55;;;;;;;2.11;95.84863;95224.86;;;;
2020/01/30 05:46:06;;;;;;;3.65;2.55;;;;;;;2.11;95.84863;95224.86;;;;
2020/01/30 05:47:06;;;;;;;3.65;2.55;;;;;;;2.11;95.84863;95224.86;;;;
2020/01/30 05:48:07;;;;;;;3.65;2.55;;;;;;;2.11;95.84863;95224.86;;;;
2020/01/30 05:49:07;;;;;;;3.65;2.55;;;;;;;2.11;95.84863;95224.86;;;;
2020/01/30 05:50:07;;;;;;;3.65;2.55;;;;;;;2.11;95.84863;95224.86;;;;
2020/01/30 05:51:08;;;;;;;3.65;2.55;;;;;;;2.11;95.84863;95224.86;;;;
2020/01/30 05:52:08;;;;;;;3.65;2.55;;;;;;;2.11;95.84863;95224.86;;;;
2020/01/30 05:53:09;;;;;;;4.45;2.75;;;;;;;1.87;96.14648;95239.4;;;;
2020/01/30 05:54:09;;;;;;;4.45;2.75;;;;;;;1.87;96.14648;95239.4;;;;
2020/01/30 05:55:10;;;;;;;4.45;2.75;;;;;;;1.87;96.14648;95239.4;;;;
2020/01/30 05:56:10;;;;;;;4.45;2.75;;;;;;;1.87;96.14648;95239.4;;;;
2020/01/30 05:57:10;;;;;;;4.45;2.75;;;;;;;1.87;96.14648;95239.4;;;;